Aviation Digital Data Service (ADDS)

Output produced by METARs form (2133 UTC 08 August 2020)
found at http://www.aviationweather.gov/metar/data/
 
LETO 082100Z 02005KT CAVOK 27/09 Q1018 NOSIG
TAF LETO 081700Z 0818/0918 VRB05KT CAVOK TX39/0916Z TN22/0906Z 
     PROB40 
     TEMPO 0820/0907 02010KT 
     PROB40 
     TEMPO 0912/0918 21011G25KT
       
LEZG 082100Z 29005G16KT 9999 FEW085 30/15 Q1017
TAF AMD LEZG 081902Z 0819/0918 26014KT 9999 SCT060 TX38/0914Z TN25/0906Z 
     PROB40 
     TEMPO 0819/0821 VRB30G50KT TSRA FEW050CB 
     BECMG 0902/0904 VRB04KT 
     BECMG 0908/0910 11010KT
       
LERT 082100Z VRB02KT CAVOK 25/22 Q1015 NOSIG
TAF LERT 082000Z 0821/0921 VRB02KT CAVOK TX31/0912Z TN22/0905Z 
     PROB30 
     TEMPO 0900/0906 4000 BR 
     BECMG 0909/0912 25010KT 
     BECMG 0919/0921 18004KT
       
LELC 082100Z 02004KT CAVOK 26/22 Q1018 NOSIG
TAF LELC 081700Z 0818/0918 11010KT CAVOK TX32/0913Z TN23/0905Z 
     BECMG 0818/0820 33004KT 
     BECMG 0910/0912 13010KT 
     PROB30 
     TEMPO 0822/0906 BKN012
       
LEAB 082100Z VRB04KT 9999 FEW080TCU 29/10 Q1022 NOSIG
TAF LEAB 081700Z 0818/0918 16010KT CAVOK TX40/0916Z TN22/0906Z 
     BECMG 0821/0822 16010KT 
     BECMG 0908/0910 VRB05KT 
     PROB40 
     TEMPO 0917/0918 17015G27KT
       
LEBZ 081900Z 28007KT CAVOK 34/15 Q1014
TAF LEBZ 081700Z 0818/0918 26007KT CAVOK TX38/0916Z TN21/0906Z
       
LEMO 082130Z 23005KT 200V270 CAVOK 27/17 Q1016 NOSIG
TAF LEMO 082000Z 0821/0921 24010KT CAVOK TX39/0915Z TN22/0905Z 
     BECMG 0821/0824 VRB02KT 
     BECMG 0912/0915 25010KT
       
LESA 082100Z AUTO 07002KT CAVOK 21/14 Q1019
TAF LESA 082000Z 0821/0921 VRB05KT CAVOK TX36/0916Z TN16/0906Z 
     BECMG 0821/0823 21010KT 
     PROB40 
     TEMPO 0910/0917 21015G25KT
       
GCLP 082100Z 36019KT 9999 FEW027 23/17 Q1018 NOSIG
TAF GCLP 082000Z 0821/0921 36021KT 9999 BKN025 TX27/0914Z TN22/0903Z
       
LIED 082055Z 04003KT CAVOK 26/18 Q1015 RMK SKC VIS MIN 9999 WIND THR35 04004KT WIND THR17 /////KT BLU
TAF LIED 082000Z 0821/0906 34007KT CAVOK
       
LIPR 082120Z AUTO 22003KT 9999 NCD 24/17 Q1016
TAF LIPR 082000Z 0821/0906 VRB05KT CAVOK